Time;durP1;ratioP1;P1;durP2;ratioP2;P2;SDS_P1;SDS_P2;PMS_P1;PMS_P2;Temp;Humidity;BMP_temperature;BMP_pressure;BME280_temperature;BME280_humidity;BME280_pressure;Samples;Min_cycle;Max_cycle;Signal;HPM_P1;HPM_P2
2021/12/02 00:01:06;;;;;;;;;;;12.50;99.90;;;;;;5117349;28;956;-52
2021/12/02 00:03:35;;;;;;;;;;;12.50;99.90;;;;;;5117817;28;853;-51
2021/12/02 00:06:04;;;;;;;;;;;12.50;99.90;;;;;;5117645;28;881;-55
2021/12/02 00:08:31;;;;;;;;;;;12.50;99.90;;;;;;5117737;28;818;-55
2021/12/02 00:10:57;;;;;;;;;;;12.50;99.90;;;;;;5117415;28;836;-55
2021/12/02 00:13:25;;;;;;;;;;;12.50;99.90;;;;;;5117453;28;840;-55
2021/12/02 00:16:05;;;;;;;;;;;12.50;99.90;;;;;;5117101;28;1062;-55
2021/12/02 00:21:11;;;;;;;;;;;12.40;99.90;;;;;;5117341;28;846;-55
2021/12/02 00:23:55;;;;;;;;;;;12.50;99.90;;;;;;5117155;28;850;-55
2021/12/02 00:26:22;;;;;;;;;;;12.40;99.90;;;;;;5117374;28;1117;-55
2021/12/02 00:28:52;;;;;;;;;;;12.40;99.90;;;;;;5117098;28;930;-55
2021/12/02 00:31:18;;;;;;;;;;;12.40;99.90;;;;;;5117071;28;895;-55
2021/12/02 00:33:46;;;;;;;;;;;12.40;99.90;;;;;;5116588;28;1040;-55
2021/12/02 00:36:13;;;;;;;;;;;12.40;99.90;;;;;;5116548;28;928;-55
2021/12/02 00:38:41;;;;;;;;;;;12.30;99.90;;;;;;5116733;28;1901;-55
2021/12/02 00:41:11;;;;;;;;;;;12.40;99.90;;;;;;5116615;28;993;-55
2021/12/02 00:43:39;;;;;;;;;;;12.30;99.90;;;;;;5117046;28;917;-55
2021/12/02 00:46:10;;;;;;;;;;;12.30;99.90;;;;;;5098948;28;848;-55
2021/12/02 00:48:38;;;;;;;;;;;12.30;99.90;;;;;;5116817;28;866;-55
2021/12/02 00:51:07;;;;;;;;;;;12.30;99.90;;;;;;5116983;28;841;-56
2021/12/02 00:53:36;;;;;;;;;;;12.30;99.90;;;;;;5116586;28;883;-55
2021/12/02 00:56:04;;;;;;;;;;;12.30;99.90;;;;;;5111672;28;1165;-55
2021/12/02 00:58:30;;;;;;;;;;;12.30;99.90;;;;;;5097750;28;1883;-55
2021/12/02 01:00:57;;;;;;;;;;;12.20;99.90;;;;;;5097920;28;900;-56
2021/12/02 01:03:24;;;;;;;;;;;12.20;99.90;;;;;;5097714;28;934;-55
2021/12/02 01:05:52;;;;;;;;;;;12.30;99.90;;;;;;5097732;28;883;-55
2021/12/02 01:08:20;;;;;;;;;;;12.20;99.90;;;;;;5097572;28;1052;-55
2021/12/02 01:10:46;;;;;;;;;;;12.30;99.90;;;;;;5079151;28;1000;-55
2021/12/02 01:13:12;;;;;;;;;;;12.30;99.90;;;;;;5111115;28;1344;-56
2021/12/02 01:15:38;;;;;;;;;;;12.20;99.90;;;;;;5116159;28;863;-55
2021/12/02 01:18:04;;;;;;;;;;;12.20;99.90;;;;;;5116060;28;1959;-55
2021/12/02 01:20:31;;;;;;;;;;;12.20;99.90;;;;;;5115952;28;1070;-55
2021/12/02 01:22:58;;;;;;;;;;;12.20;99.90;;;;;;5115954;28;1023;-55
2021/12/02 01:25:27;;;;;;;;;;;12.20;99.90;;;;;;5115539;28;845;-55
2021/12/02 01:27:55;;;;;;;;;;;12.20;99.90;;;;;;5116010;28;894;-55
2021/12/02 01:30:24;;;;;;;;;;;12.20;99.90;;;;;;5116048;28;887;-55
2021/12/02 01:32:52;;;;;;;;;;;12.10;99.90;;;;;;5116354;28;819;-55
2021/12/02 01:35:22;;;;;;;;;;;12.10;99.90;;;;;;5115709;28;938;-55
2021/12/02 01:37:49;;;;;;;;;;;12.10;99.90;;;;;;5116356;28;1953;-55
2021/12/02 01:40:16;;;;;;;;;;;12.10;99.90;;;;;;5115884;28;961;-55
2021/12/02 01:42:45;;;;;;;;;;;12.10;99.90;;;;;;5112631;28;1400;-56
2021/12/02 01:45:15;;;;;;;;;;;12.10;99.90;;;;;;5102320;28;1020;-55
2021/12/02 01:47:45;;;;;;;;;;;12.10;99.90;;;;;;5097564;28;992;-55
2021/12/02 01:50:14;;;;;;;;;;;12.10;99.90;;;;;;5098900;28;820;-55
2021/12/02 01:52:43;;;;;;;;;;;12.10;99.90;;;;;;5096611;28;1149;-55
2021/12/02 01:55:10;;;;;;;;;;;12.10;99.90;;;;;;5099051;28;840;-55
2021/12/02 01:57:39;;;;;;;;;;;12.10;99.90;;;;;;5109725;28;1906;-55
2021/12/02 02:00:07;;;;;;;;;;;12.10;99.90;;;;;;5097295;28;878;-55
2021/12/02 02:02:36;;;;;;;;;;;12.10;99.90;;;;;;5097253;28;821;-55
2021/12/02 02:05:03;;;;;;;;;;;12.10;99.90;;;;;;5096294;28;951;-55
2021/12/02 02:07:32;;;;;;;;;;;12.10;99.90;;;;;;5096369;28;896;-55
2021/12/02 02:09:58;;;;;;;;;;;12.10;99.90;;;;;;5096360;28;947;-55
2021/12/02 02:12:25;;;;;;;;;;;12.00;99.90;;;;;;5079478;28;842;-55
2021/12/02 02:14:53;;;;;;;;;;;12.10;99.90;;;;;;5096792;28;816;-55
2021/12/02 02:19:53;;;;;;;;;;;12.00;99.90;;;;;;5115316;28;1186;-57
2021/12/02 02:22:22;;;;;;;;;;;12.00;99.90;;;;;;5097182;28;1018;-55
2021/12/02 02:24:50;;;;;;;;;;;12.00;99.90;;;;;;5100251;28;967;-55
2021/12/02 02:27:16;;;;;;;;;;;12.00;99.90;;;;;;5119658;28;848;-55
2021/12/02 02:29:42;;;;;;;;;;;12.00;99.90;;;;;;5118701;28;877;-55
2021/12/02 02:32:08;;;;;;;;;;;12.00;99.90;;;;;;5100817;28;967;-55
2021/12/02 02:34:34;;;;;;;;;;;12.00;99.90;;;;;;5100678;28;1000;-55
2021/12/02 02:37:03;;;;;;;;;;;12.00;99.90;;;;;;5100547;28;986;-55
2021/12/02 02:39:31;;;;;;;;;;;12.00;99.90;;;;;;5119580;28;1917;-55
2021/12/02 02:41:59;;;;;;;;;;;12.00;99.90;;;;;;5119392;28;896;-56
2021/12/02 02:44:27;;;;;;;;;;;12.00;99.90;;;;;;5119446;28;836;-55
2021/12/02 02:46:55;;;;;;;;;;;11.90;99.90;;;;;;5119199;28;883;-55
2021/12/02 02:49:21;;;;;;;;;;;12.00;99.90;;;;;;5100292;28;1010;-55
2021/12/02 02:51:48;;;;;;;;;;;11.90;99.90;;;;;;5117853;28;937;-55
2021/12/02 02:54:16;;;;;;;;;;;11.90;99.90;;;;;;5063833;28;1330;-57
2021/12/02 02:56:51;;;;;;;;;;;11.90;99.90;;;;;;5113748;28;1297;-55
2021/12/02 02:59:37;;;;;;;;;;;11.90;99.90;;;;;;5099748;28;1914;-55
2021/12/02 03:07:20;;;;;;;;;;;11.90;99.90;;;;;;5118737;28;983;-55
2021/12/02 03:10:03;;;;;;;;;;;11.90;99.90;;;;;;5100069;28;956;-55
2021/12/02 03:12:36;;;;;;;;;;;11.90;99.90;;;;;;5099614;28;1041;-55
2021/12/02 03:17:30;;;;;;;;;;;11.80;99.90;;;;;;5118502;28;1276;-55
2021/12/02 03:19:58;;;;;;;;;;;11.80;99.90;;;;;;5117859;28;1963;-55
2021/12/02 03:22:26;;;;;;;;;;;11.90;99.90;;;;;;5118340;28;889;-55
2021/12/02 03:24:53;;;;;;;;;;;11.80;99.90;;;;;;5118617;28;899;-55
2021/12/02 03:27:19;;;;;;;;;;;11.80;99.90;;;;;;5099759;28;937;-55
2021/12/02 03:29:45;;;;;;;;;;;11.80;99.90;;;;;;5099688;28;913;-55
2021/12/02 03:32:11;;;;;;;;;;;11.80;99.90;;;;;;5099785;28;891;-55
2021/12/02 03:34:38;;;;;;;;;;;11.80;99.90;;;;;;5099227;28;871;-55
2021/12/02 03:37:05;;;;;;;;;;;11.80;99.90;;;;;;5099105;28;954;-55
2021/12/02 03:39:30;;;;;;;;;;;11.80;99.90;;;;;;5098936;28;2035;-55
2021/12/02 03:41:58;;;;;;;;;;;11.80;99.90;;;;;;5099211;28;872;-55
2021/12/02 03:44:35;;;;;;;;;;;11.70;99.90;;;;;;5118314;28;888;-55
2021/12/02 03:47:01;;;;;;;;;;;11.80;99.90;;;;;;5117939;28;888;-55
2021/12/02 03:49:28;;;;;;;;;;;11.70;99.90;;;;;;5117789;28;860;-55
2021/12/02 03:51:56;;;;;;;;;;;11.70;99.90;;;;;;5117742;28;886;-55
2021/12/02 03:54:21;;;;;;;;;;;11.70;99.90;;;;;;5117924;28;932;-59
2021/12/02 03:56:48;;;;;;;;;;;11.70;99.90;;;;;;5117638;28;1243;-55
2021/12/02 03:59:14;;;;;;;;;;;11.70;99.90;;;;;;5117615;28;1905;-55
2021/12/02 04:01:40;;;;;;;;;;;11.70;99.90;;;;;;5117740;28;925;-57
2021/12/02 04:04:06;;;;;;;;;;;11.70;99.90;;;;;;5117343;28;1112;-56
2021/12/02 04:06:33;;;;;;;;;;;11.70;99.90;;;;;;5117641;28;832;-55
2021/12/02 04:09:21;;;;;;;;;;;11.70;99.90;;;;;;5117464;28;1051;-55
2021/12/02 04:14:27;;;;;;;;;;;11.70;99.90;;;;;;5117496;28;876;-55
2021/12/02 04:17:03;;;;;;;;;;;11.60;99.90;;;;;;5117331;28;824;-57
2021/12/02 04:19:30;;;;;;;;;;;11.70;99.90;;;;;;5117067;28;1973;-57
2021/12/02 04:21:58;;;;;;;;;;;11.60;99.90;;;;;;5117835;28;986;-55
2021/12/02 04:24:26;;;;;;;;;;;11.60;99.90;;;;;;5117249;28;976;-55
2021/12/02 04:26:52;;;;;;;;;;;11.60;99.90;;;;;;5103120;28;902;-57
2021/12/02 04:29:18;;;;;;;;;;;11.60;99.90;;;;;;5098340;28;857;-57
2021/12/02 04:31:45;;;;;;;;;;;11.60;99.90;;;;;;5098395;28;865;-55
2021/12/02 04:34:11;;;;;;;;;;;11.60;99.90;;;;;;5098243;28;843;-57
2021/12/02 04:36:37;;;;;;;;;;;11.60;99.90;;;;;;5098312;28;994;-57
2021/12/02 04:39:05;;;;;;;;;;;11.60;99.90;;;;;;5105070;28;1955;-55
2021/12/02 04:41:31;;;;;;;;;;;11.60;99.90;;;;;;5110880;28;1089;-56
2021/12/02 04:43:58;;;;;;;;;;;11.60;99.90;;;;;;5098413;28;1019;-55
2021/12/02 04:46:24;;;;;;;;;;;11.60;99.90;;;;;;5116187;28;888;-55
2021/12/02 04:48:50;;;;;;;;;;;11.60;99.90;;;;;;5097791;28;983;-55
2021/12/02 04:51:16;;;;;;;;;;;11.60;99.90;;;;;;5116623;28;828;-55
2021/12/02 04:53:42;;;;;;;;;;;11.60;99.90;;;;;;5116956;28;860;-55
2021/12/02 04:56:08;;;;;;;;;;;11.60;99.90;;;;;;5107346;28;1163;-55
2021/12/02 04:58:34;;;;;;;;;;;11.60;99.90;;;;;;5110438;28;1977;-55
2021/12/02 05:01:00;;;;;;;;;;;11.60;99.90;;;;;;5116745;28;801;-57
2021/12/02 05:03:27;;;;;;;;;;;11.60;99.90;;;;;;5116911;28;868;-55
2021/12/02 05:05:53;;;;;;;;;;;11.60;99.90;;;;;;5116594;28;883;-55
2021/12/02 05:08:19;;;;;;;;;;;11.60;99.90;;;;;;5116420;28;931;-55
2021/12/02 05:10:45;;;;;;;;;;;11.60;99.90;;;;;;5116237;28;879;-55
2021/12/02 05:13:11;;;;;;;;;;;11.60;99.90;;;;;;5116140;28;962;-55
2021/12/02 05:15:37;;;;;;;;;;;11.60;99.90;;;;;;5117000;28;808;-55
2021/12/02 05:18:04;;;;;;;;;;;11.60;99.90;;;;;;5116681;28;1906;-55
2021/12/02 05:20:30;;;;;;;;;;;11.60;99.90;;;;;;5116231;28;978;-55
2021/12/02 05:22:56;;;;;;;;;;;11.60;99.90;;;;;;5116044;28;921;-55
2021/12/02 05:25:23;;;;;;;;;;;11.60;99.90;;;;;;5109147;28;1522;-56
2021/12/02 05:27:49;;;;;;;;;;;11.60;99.90;;;;;;5116068;28;907;-55
2021/12/02 05:30:15;;;;;;;;;;;11.60;99.90;;;;;;5115967;28;828;-55
2021/12/02 05:32:41;;;;;;;;;;;11.60;99.90;;;;;;5116056;28;1048;-55
2021/12/02 05:35:07;;;;;;;;;;;11.70;99.90;;;;;;5115478;28;939;-55
2021/12/02 05:37:34;;;;;;;;;;;11.70;99.90;;;;;;5115864;28;942;-57
2021/12/02 05:40:01;;;;;;;;;;;11.60;99.90;;;;;;5115796;28;1961;-55
2021/12/02 05:42:27;;;;;;;;;;;11.60;99.90;;;;;;5115649;28;1075;-55
2021/12/02 05:44:53;;;;;;;;;;;11.60;99.90;;;;;;5115754;28;831;-55
2021/12/02 05:47:19;;;;;;;;;;;11.60;99.90;;;;;;5115677;28;935;-55
2021/12/02 05:49:45;;;;;;;;;;;11.60;99.90;;;;;;5115962;28;887;-57
2021/12/02 05:52:11;;;;;;;;;;;11.60;99.90;;;;;;5115654;28;1013;-55
2021/12/02 05:54:38;;;;;;;;;;;11.60;99.90;;;;;;5097863;28;860;-55
2021/12/02 05:57:04;;;;;;;;;;;11.70;99.90;;;;;;5114897;28;1243;-55
2021/12/02 05:59:31;;;;;;;;;;;11.70;99.90;;;;;;5115090;28;1902;-55
2021/12/02 06:01:58;;;;;;;;;;;11.70;99.90;;;;;;5115846;28;937;-55
2021/12/02 06:04:25;;;;;;;;;;;11.80;99.90;;;;;;5115412;28;943;-57
2021/12/02 06:06:51;;;;;;;;;;;11.80;99.90;;;;;;5115450;28;964;-55
2021/12/02 06:09:19;;;;;;;;;;;11.90;99.90;;;;;;5115641;28;900;-55
2021/12/02 06:11:45;;;;;;;;;;;11.90;99.90;;;;;;5114968;28;893;-57
2021/12/02 06:14:13;;;;;;;;;;;12.00;99.90;;;;;;5115642;28;900;-55
2021/12/02 06:16:41;;;;;;;;;;;12.10;99.90;;;;;;5115370;28;921;-55
2021/12/02 06:19:08;;;;;;;;;;;12.20;99.90;;;;;;5114326;28;1906;-55
2021/12/02 06:21:36;;;;;;;;;;;12.30;99.90;;;;;;5115281;28;1670;-55
2021/12/02 06:24:05;;;;;;;;;;;12.40;99.90;;;;;;5080168;28;1432;-55
2021/12/02 06:26:31;;;;;;;;;;;12.60;99.90;;;;;;5115329;28;817;-55
2021/12/02 06:28:57;;;;;;;;;;;12.70;99.90;;;;;;5115004;28;1151;-57
2021/12/02 06:31:24;;;;;;;;;;;12.90;99.90;;;;;;5112861;28;927;-55
2021/12/02 06:33:50;;;;;;;;;;;13.10;99.90;;;;;;5115180;28;840;-55
2021/12/02 06:36:16;;;;;;;;;;;13.20;99.90;;;;;;5115478;28;882;-55
2021/12/02 06:38:42;;;;;;;;;;;13.40;99.90;;;;;;5096396;28;1906;-55
2021/12/02 06:41:09;;;;;;;;;;;13.60;99.90;;;;;;5096557;28;835;-55
2021/12/02 06:43:37;;;;;;;;;;;13.70;99.90;;;;;;5096372;28;892;-55
2021/12/02 06:46:04;;;;;;;;;;;13.90;99.90;;;;;;5080241;28;1092;-55
2021/12/02 06:48:30;;;;;;;;;;;14.00;99.90;;;;;;5103257;28;881;-55
2021/12/02 06:50:55;;;;;;;;;;;14.10;99.90;;;;;;5096343;28;876;-55
2021/12/02 06:53:21;;;;;;;;;;;14.30;99.90;;;;;;5096613;28;793;-55
2021/12/02 06:55:49;;;;;;;;;;;14.40;99.90;;;;;;5098622;28;947;-55
2021/12/02 06:58:16;;;;;;;;;;;14.50;99.90;;;;;;5096122;28;1902;-57
2021/12/02 07:00:42;;;;;;;;;;;14.50;99.90;;;;;;5094197;28;916;-55
2021/12/02 07:03:08;;;;;;;;;;;14.60;99.90;;;;;;5096607;28;837;-56
2021/12/02 07:05:34;;;;;;;;;;;14.70;99.90;;;;;;5096403;28;837;-55
2021/12/02 07:08:01;;;;;;;;;;;14.70;99.90;;;;;;5096225;28;916;-52
2021/12/02 07:10:28;;;;;;;;;;;14.70;99.90;;;;;;5097042;28;892;-55
2021/12/02 07:12:56;;;;;;;;;;;14.60;99.90;;;;;;5100001;28;909;-55
2021/12/02 07:15:31;;;;;;;;;;;14.60;99.90;;;;;;5099976;28;879;-52
2021/12/02 07:17:59;;;;;;;;;;;14.60;99.90;;;;;;5099461;28;841;-55
2021/12/02 07:20:29;;;;;;;;;;;14.60;99.90;;;;;;5081710;28;1977;-55
2021/12/02 07:22:57;;;;;;;;;;;14.60;99.90;;;;;;5100842;28;1353;-56
2021/12/02 07:25:23;;;;;;;;;;;14.60;99.90;;;;;;5106509;28;987;-55
2021/12/02 07:27:50;;;;;;;;;;;14.60;99.90;;;;;;5106320;28;1364;-55
2021/12/02 07:30:16;;;;;;;;;;;14.50;99.90;;;;;;5099575;28;887;-56
2021/12/02 07:32:47;;;;;;;;;;;14.50;99.90;;;;;;5099555;28;994;-52
2021/12/02 07:35:14;;;;;;;;;;;14.50;99.90;;;;;;5065115;28;846;-51
2021/12/02 07:37:41;;;;;;;;;;;14.40;99.90;;;;;;5099463;28;852;-52
2021/12/02 07:40:07;;;;;;;;;;;14.30;99.90;;;;;;5099455;28;1965;-55
2021/12/02 07:42:33;;;;;;;;;;;14.30;99.90;;;;;;5108624;28;1304;-55
2021/12/02 07:44:59;;;;;;;;;;;14.20;99.90;;;;;;5114555;28;899;-52
2021/12/02 07:47:26;;;;;;;;;;;14.10;99.90;;;;;;5117940;28;920;-51
2021/12/02 07:49:53;;;;;;;;;;;14.10;99.90;;;;;;5118057;28;905;-51
2021/12/02 07:52:24;;;;;;;;;;;14.00;99.90;;;;;;5117809;28;871;-51
2021/12/02 07:54:52;;;;;;;;;;;13.90;99.90;;;;;;5100077;28;895;-51
2021/12/02 07:57:19;;;;;;;;;;;13.90;99.90;;;;;;5063058;28;1175;-51
2021/12/02 07:59:48;;;;;;;;;;;13.80;99.90;;;;;;5098962;28;1977;-51
2021/12/02 08:02:15;;;;;;;;;;;13.70;99.90;;;;;;5081545;28;888;-51
2021/12/02 08:04:41;;;;;;;;;;;13.70;99.90;;;;;;5097184;28;1028;-51
2021/12/02 08:07:07;;;;;;;;;;;13.60;99.90;;;;;;5098779;28;929;-55
2021/12/02 08:09:33;;;;;;;;;;;13.60;99.90;;;;;;5098891;28;911;-52
2021/12/02 08:12:00;;;;;;;;;;;13.60;99.90;;;;;;5098920;28;908;-51
2021/12/02 08:14:27;;;;;;;;;;;13.60;99.90;;;;;;5098945;28;967;-51
2021/12/02 08:16:54;;;;;;;;;;;13.60;99.90;;;;;;5080724;28;893;-51
2021/12/02 08:19:22;;;;;;;;;;;13.60;99.90;;;;;;5098361;28;1905;-51
2021/12/02 08:21:50;;;;;;;;;;;13.70;99.90;;;;;;5098291;28;887;-51
2021/12/02 08:24:21;;;;;;;;;;;13.70;99.90;;;;;;5098410;28;816;-56
2021/12/02 08:26:49;;;;;;;;;;;13.70;99.90;;;;;;5113688;28;1629;-56
2021/12/02 08:29:15;;;;;;;;;;;13.70;99.90;;;;;;5117330;28;835;-55
2021/12/02 08:31:42;;;;;;;;;;;13.80;99.90;;;;;;5098827;28;982;-56
2021/12/02 08:34:07;;;;;;;;;;;13.80;99.90;;;;;;5098701;28;970;-55
2021/12/02 08:36:49;;;;;;;;;;;13.80;99.90;;;;;;5116879;28;1034;-55
2021/12/02 08:39:18;;;;;;;;;;;13.90;99.90;;;;;;5098555;28;1902;-55
2021/12/02 08:41:47;;;;;;;;;;;13.90;99.90;;;;;;5075363;28;1075;-55
2021/12/02 08:44:14;;;;;;;;;;;13.90;99.90;;;;;;5116051;28;984;-56
2021/12/02 08:46:40;;;;;;;;;;;13.90;99.90;;;;;;5116093;28;1243;-55
2021/12/02 08:49:06;;;;;;;;;;;13.90;99.90;;;;;;5116395;28;971;-51
2021/12/02 08:51:32;;;;;;;;;;;13.90;99.90;;;;;;5116769;28;887;-52
2021/12/02 08:53:58;;;;;;;;;;;14.00;99.90;;;;;;5117112;28;812;-51
2021/12/02 08:56:24;;;;;;;;;;;14.00;99.90;;;;;;5116632;28;1062;-51
2021/12/02 08:58:52;;;;;;;;;;;14.00;99.90;;;;;;5110157;28;1914;-51
2021/12/02 09:01:19;;;;;;;;;;;14.00;99.90;;;;;;5116672;28;879;-55
2021/12/02 09:03:45;;;;;;;;;;;14.00;99.90;;;;;;5116624;28;943;-55
2021/12/02 09:06:11;;;;;;;;;;;14.00;99.90;;;;;;5115924;28;891;-52
2021/12/02 09:08:38;;;;;;;;;;;14.00;99.90;;;;;;5109911;28;1123;-55
2021/12/02 09:11:05;;;;;;;;;;;14.00;99.90;;;;;;5116509;28;959;-55
2021/12/02 09:13:31;;;;;;;;;;;14.00;99.90;;;;;;5116375;28;974;-55
2021/12/02 09:15:58;;;;;;;;;;;14.00;99.90;;;;;;5116482;28;871;-55
2021/12/02 09:18:24;;;;;;;;;;;14.00;99.90;;;;;;5116022;28;1016;-56
2021/12/02 09:20:50;;;;;;;;;;;14.00;99.90;;;;;;5115598;28;1973;-55
2021/12/02 09:23:17;;;;;;;;;;;14.00;99.90;;;;;;5116211;28;859;-55
2021/12/02 09:25:43;;;;;;;;;;;14.00;99.90;;;;;;5116205;28;895;-55
2021/12/02 09:28:10;;;;;;;;;;;13.90;99.90;;;;;;5106194;28;1257;-55
2021/12/02 09:30:36;;;;;;;;;;;13.90;99.90;;;;;;5097346;28;969;-55
2021/12/02 09:33:02;;;;;;;;;;;13.80;99.90;;;;;;5096806;28;857;-55
2021/12/02 09:35:29;;;;;;;;;;;13.80;99.90;;;;;;5097104;28;971;-55
2021/12/02 09:37:55;;;;;;;;;;;13.70;99.90;;;;;;5097011;28;980;-56
2021/12/02 09:40:23;;;;;;;;;;;13.70;99.90;;;;;;5097351;28;1945;-56
2021/12/02 09:42:49;;;;;;;;;;;13.70;99.90;;;;;;5097081;28;844;-55
2021/12/02 09:45:15;;;;;;;;;;;13.60;99.90;;;;;;5097133;28;933;-57
2021/12/02 09:47:44;;;;;;;;;;;13.60;99.90;;;;;;5096646;28;893;-57
2021/12/02 09:50:17;;;;;;;;;;;13.60;99.90;;;;;;5097061;28;1026;-55
2021/12/02 09:52:44;;;;;;;;;;;13.50;99.90;;;;;;5096619;28;989;-55
2021/12/02 09:55:23;;;;;;;;;;;13.50;99.90;;;;;;5098997;28;891;-56
2021/12/02 09:57:59;;;;;;;;;;;13.60;99.90;;;;;;5113797;28;1093;-56
2021/12/02 10:00:40;;;;;;;;;;;13.60;99.90;;;;;;5115024;28;1914;-55
2021/12/02 10:03:28;;;;;;;;;;;13.60;99.90;;;;;;5115236;28;944;-55
2021/12/02 10:06:09;;;;;;;;;;;13.60;99.90;;;;;;5115158;28;1068;-55
2021/12/02 10:08:41;;;;;;;;;;;13.70;99.90;;;;;;5114778;28;850;-55
2021/12/02 10:11:14;;;;;;;;;;;13.70;99.90;;;;;;5097770;28;940;-55
2021/12/02 10:13:58;;;;;;;;;;;13.70;99.90;;;;;;5096644;28;800;-55
2021/12/02 10:16:39;;;;;;;;;;;13.70;99.90;;;;;;5112079;28;1167;-55
2021/12/02 10:19:09;;;;;;;;;;;13.70;99.90;;;;;;5115555;28;1897;-55
2021/12/02 10:21:39;;;;;;;;;;;13.70;99.90;;;;;;5115104;28;1228;-55
2021/12/02 10:24:07;;;;;;;;;;;13.60;99.90;;;;;;5115258;28;856;-55
2021/12/02 10:26:36;;;;;;;;;;;13.60;99.90;;;;;;5115227;28;1041;-55
2021/12/02 10:29:09;;;;;;;;;;;13.50;99.90;;;;;;5115500;28;960;-55
2021/12/02 10:31:37;;;;;;;;;;;13.50;99.90;;;;;;5115138;28;919;-55
2021/12/02 10:34:06;;;;;;;;;;;13.50;99.90;;;;;;5096201;28;892;-55
2021/12/02 10:36:39;;;;;;;;;;;13.50;99.90;;;;;;5112096;28;1000;-55
2021/12/02 10:39:08;;;;;;;;;;;13.50;99.90;;;;;;5114437;28;1898;-55
2021/12/02 10:41:34;;;;;;;;;;;13.50;99.90;;;;;;5115105;28;915;-55
2021/12/02 10:44:03;;;;;;;;;;;13.40;99.90;;;;;;5097232;28;1086;-55
2021/12/02 10:46:30;;;;;;;;;;;13.40;99.90;;;;;;5118135;28;882;-55
2021/12/02 10:48:58;;;;;;;;;;;13.40;99.90;;;;;;5119087;28;959;-55
2021/12/02 10:51:38;;;;;;;;;;;13.40;99.90;;;;;;5117779;28;855;-55
2021/12/02 10:54:13;;;;;;;;;;;13.30;99.90;;;;;;5100308;28;836;-55
2021/12/02 10:56:40;;;;;;;;;;;13.30;99.90;;;;;;5116473;28;1194;-55
2021/12/02 10:59:32;;;;;;;;;;;13.30;99.90;;;;;;5119086;28;1902;-55
2021/12/02 11:02:02;;;;;;;;;;;13.30;99.90;;;;;;5098275;28;1191;-55
2021/12/02 11:04:40;;;;;;;;;;;13.30;99.90;;;;;;5101271;28;860;-55
2021/12/02 11:07:11;;;;;;;;;;;13.30;99.90;;;;;;5105747;28;1123;-55
2021/12/02 11:09:38;;;;;;;;;;;13.30;99.90;;;;;;5118473;28;959;-55
2021/12/02 11:12:22;;;;;;;;;;;13.30;99.90;;;;;;5118107;28;1019;-55
2021/12/02 11:14:55;;;;;;;;;;;13.30;99.90;;;;;;5118726;28;765;-55
2021/12/02 11:17:21;;;;;;;;;;;13.30;99.90;;;;;;5118610;28;939;-55
2021/12/02 11:19:48;;;;;;;;;;;13.30;99.90;;;;;;5118078;28;1909;-55
2021/12/02 11:22:16;;;;;;;;;;;13.30;99.90;;;;;;5100008;28;879;-55
2021/12/02 11:24:43;;;;;;;;;;;13.30;99.90;;;;;;5100202;28;835;-55
2021/12/02 11:27:14;;;;;;;;;;;13.30;99.90;;;;;;5117621;28;816;-55
2021/12/02 11:29:54;;;;;;;;;;;13.30;99.90;;;;;;5118577;28;808;-55
2021/12/02 11:32:51;;;;;;;;;;;13.30;99.90;;;;;;5098913;28;861;-55
2021/12/02 11:35:20;;;;;;;;;;;13.40;99.90;;;;;;5105189;28;1329;-55
2021/12/02 11:38:05;;;;;;;;;;;13.40;99.90;;;;;;5117840;28;1013;-55
2021/12/02 11:40:33;;;;;;;;;;;13.40;99.90;;;;;;5112562;28;1906;-55
2021/12/02 11:43:00;;;;;;;;;;;13.30;99.90;;;;;;5100423;28;844;-56
2021/12/02 11:45:28;;;;;;;;;;;13.30;99.90;;;;;;5118341;28;833;-56
2021/12/02 11:47:56;;;;;;;;;;;13.30;99.90;;;;;;5099587;28;988;-55
2021/12/02 11:50:23;;;;;;;;;;;13.30;99.90;;;;;;5099428;28;883;-56
2021/12/02 11:52:49;;;;;;;;;;;13.20;99.90;;;;;;5118337;28;951;-55
2021/12/02 11:55:19;;;;;;;;;;;13.20;99.90;;;;;;5118200;28;976;-55
2021/12/02 11:57:46;;;;;;;;;;;13.20;99.90;;;;;;5116785;28;1259;-55
2021/12/02 12:00:13;;;;;;;;;;;13.10;99.90;;;;;;5117607;28;1975;-55
2021/12/02 12:02:48;;;;;;;;;;;13.10;99.90;;;;;;5117851;28;980;-56
2021/12/02 12:05:15;;;;;;;;;;;13.10;99.90;;;;;;5117411;28;1026;-55
2021/12/02 12:07:43;;;;;;;;;;;13.10;99.90;;;;;;5117078;28;912;-55
2021/12/02 12:10:16;;;;;;;;;;;13.10;99.90;;;;;;5117539;28;882;-56
2021/12/02 12:12:43;;;;;;;;;;;13.00;99.90;;;;;;5117361;28;804;-55
2021/12/02 12:15:27;;;;;;;;;;;13.00;99.90;;;;;;5113040;28;940;-55
2021/12/02 12:17:54;;;;;;;;;;;13.00;99.90;;;;;;5117675;28;919;-55
2021/12/02 12:20:19;;;;;;;;;;;13.00;99.90;;;;;;5117450;28;1906;-57
2021/12/02 12:22:45;;;;;;;;;;;12.90;99.90;;;;;;5117525;28;828;-56
2021/12/02 12:25:28;;;;;;;;;;;12.90;99.90;;;;;;5117604;28;797;-55
2021/12/02 12:27:57;;;;;;;;;;;12.90;99.90;;;;;;5117863;28;800;-55
2021/12/02 12:30:24;;;;;;;;;;;12.90;99.90;;;;;;5117626;28;867;-55
2021/12/02 12:36:07;;;;;;;;;;;13.00;99.90;;;;;;5116906;28;963;-55
2021/12/02 12:38:42;;;;;;;;;;;13.00;99.90;;;;;;5116773;28;975;-55
2021/12/02 12:41:12;;;;;;;;;;;13.10;99.90;;;;;;5116458;28;1906;-55
2021/12/02 12:43:45;;;;;;;;;;;13.10;99.90;;;;;;5116801;28;899;-54
2021/12/02 12:46:13;;;;;;;;;;;13.10;99.90;;;;;;5117000;28;773;-54
2021/12/02 12:48:41;;;;;;;;;;;13.20;99.90;;;;;;5098687;28;948;-54
2021/12/02 12:51:11;;;;;;;;;;;13.20;99.90;;;;;;5116525;28;876;-54
2021/12/02 12:53:40;;;;;;;;;;;13.20;99.90;;;;;;5116242;28;861;-54
2021/12/02 12:56:08;;;;;;;;;;;13.20;99.90;;;;;;5116243;28;1254;-53
2021/12/02 12:58:36;;;;;;;;;;;13.20;99.90;;;;;;5110251;28;917;-56
2021/12/02 13:01:17;;;;;;;;;;;13.30;99.90;;;;;;5116710;28;1905;-55
2021/12/02 13:03:44;;;;;;;;;;;13.30;99.90;;;;;;5098213;28;894;-54
2021/12/02 13:06:25;;;;;;;;;;;13.30;99.90;;;;;;5097875;28;1047;-54
2021/12/02 13:08:56;;;;;;;;;;;13.30;99.90;;;;;;5107889;28;1574;-54
2021/12/02 13:11:25;;;;;;;;;;;13.30;99.90;;;;;;5100860;28;884;-54
2021/12/02 13:13:53;;;;;;;;;;;13.30;99.90;;;;;;5097561;28;886;-54
2021/12/02 13:16:38;;;;;;;;;;;13.30;99.90;;;;;;5097656;28;795;-54
2021/12/02 13:19:07;;;;;;;;;;;13.30;99.90;;;;;;5097536;28;1964;-55
2021/12/02 13:21:34;;;;;;;;;;;13.20;99.90;;;;;;5097540;28;897;-54
2021/12/02 13:24:07;;;;;;;;;;;13.20;99.90;;;;;;5097327;28;855;-54
2021/12/02 13:26:43;;;;;;;;;;;13.20;99.90;;;;;;5109431;28;1352;-55
2021/12/02 13:29:15;;;;;;;;;;;13.20;99.90;;;;;;5108172;28;1241;-54
2021/12/02 13:31:42;;;;;;;;;;;13.10;99.90;;;;;;5095295;28;859;-51
2021/12/02 13:34:12;;;;;;;;;;;13.10;99.90;;;;;;5097260;28;879;-54
2021/12/02 13:36:46;;;;;;;;;;;13.10;99.90;;;;;;5097299;28;859;-51
2021/12/02 13:39:31;;;;;;;;;;;13.10;99.90;;;;;;5115885;28;1952;-50
2021/12/02 13:41:59;;;;;;;;;;;13.00;99.90;;;;;;5131850;27;955;-55
2021/12/02 13:44:29;;;;;;;;;;;13.00;99.90;;;;;;5115657;28;959;-55
2021/12/02 13:46:58;;;;;;;;;;;13.00;99.90;;;;;;5115433;28;893;-56
2021/12/02 13:49:32;;;;;;;;;;;13.00;99.90;;;;;;5115402;28;1463;-52
2021/12/02 13:55:14;;;;;;;;;;;12.90;99.90;;;;;;5115865;28;847;-52
2021/12/02 13:57:51;;;;;;;;;;;12.90;99.90;;;;;;5061279;28;1220;-52
2021/12/02 14:00:29;;;;;;;;;;;12.90;99.90;;;;;;5110194;28;1910;-52
2021/12/02 14:03:14;;;;;;;;;;;12.80;99.90;;;;;;5115580;28;866;-51
2021/12/02 14:05:44;;;;;;;;;;;12.80;99.90;;;;;;5115649;28;925;-55
2021/12/02 14:08:12;;;;;;;;;;;12.80;99.90;;;;;;5115572;28;808;-56
2021/12/02 14:10:39;;;;;;;;;;;12.70;99.90;;;;;;5115650;28;824;-51
2021/12/02 14:13:05;;;;;;;;;;;12.70;99.90;;;;;;5115298;28;884;-52
2021/12/02 14:15:33;;;;;;;;;;;12.70;99.90;;;;;;5097570;28;847;-52
2021/12/02 14:18:00;;;;;;;;;;;12.60;99.90;;;;;;5114946;28;959;-55
2021/12/02 14:20:32;;;;;;;;;;;12.60;99.90;;;;;;5118004;28;1894;-55
2021/12/02 14:23:00;;;;;;;;;;;12.60;99.90;;;;;;5119852;28;829;-56
2021/12/02 14:25:29;;;;;;;;;;;12.60;99.90;;;;;;5118121;28;887;-56
2021/12/02 14:28:15;;;;;;;;;;;12.60;99.90;;;;;;5100944;28;782;-52
2021/12/02 14:30:44;;;;;;;;;;;12.60;99.90;;;;;;5116870;28;876;-51
2021/12/02 14:33:11;;;;;;;;;;;12.60;99.90;;;;;;5102024;28;1038;-55
2021/12/02 14:35:42;;;;;;;;;;;12.60;99.90;;;;;;5101052;28;882;-55
2021/12/02 14:38:18;;;;;;;;;;;12.60;99.90;;;;;;5119627;28;936;-52
2021/12/02 14:40:48;;;;;;;;;;;12.60;99.90;;;;;;5119372;28;1901;-52
2021/12/02 14:43:15;;;;;;;;;;;12.60;99.90;;;;;;5100741;28;1306;-52
2021/12/02 14:45:41;;;;;;;;;;;12.70;99.90;;;;;;5118667;28;899;-55
2021/12/02 14:48:34;;;;;;;;;;;12.70;99.90;;;;;;5119401;28;798;-52
2021/12/02 14:51:02;;;;;;;;;;;12.70;99.90;;;;;;5115667;28;1065;-52
2021/12/02 14:53:31;;;;;;;;;;;12.80;99.90;;;;;;5119117;28;855;-52
2021/12/02 14:56:04;;;;;;;;;;;12.80;99.90;;;;;;5119210;28;879;-55
2021/12/02 14:58:30;;;;;;;;;;;12.90;99.90;;;;;;5094088;28;1056;-52
2021/12/02 15:01:13;;;;;;;;;;;12.90;99.90;;;;;;5078175;28;1885;-52
2021/12/02 15:03:40;;;;;;;;;;;12.90;99.90;;;;;;5078349;28;789;-52
2021/12/02 15:06:06;;;;;;;;;;;13.00;99.90;;;;;;5077279;28;1472;-55
2021/12/02 15:08:33;;;;;;;;;;;13.00;99.90;;;;;;5078421;28;885;-55
2021/12/02 15:11:00;;;;;;;;;;;12.90;99.90;;;;;;5078039;28;951;-55